Ogema, Canada
Current Conditions -  °F | °C
As of 7:00 AM on Friday 31 Oct 2014 (Local Time) from CYQR Reporting Station
Overcast Overcast  
Wind Chill:   Ceiling: 700
Heat Index: 25°   Visibility: 15mi
Dew Point: 23°   Wind: 25mph
Humidity: 93%   Direction: 150°SSE
Pressure: 30.21"   Gusts: 35mph
Location:  49.57°N, 104.92°W
Report Text: CYQR 311300Z 15022G30KT 15SM OVC007 M04/M05 A3021 RMK SC8 SLP265
Loading
Personal Weather Stations






























Interactive Weather Map
Tropical Storm Tracking
New forecast layout! Learn more

10-Day Weather Forecast

Advertisements
Track Severe Weather on mobile